Aérodrome :
LOGIN :

S'inscrire | Disclaimer

   EN    FR    IT 

 










Légende :    VFR   VFR Marginal   IFR   IFR Intensif   IFR Très Intensif
Visi : 
Plafond : 
>= 8 km
>= 3000ft
5 à 8 km
1000 à 3000 ft
1500m à 5 km
500 à 1000 ft
800 à 1500m
200 à 500 ft
< 800m
< 200 ft
Symboles :   Orages  Brouillard  Fortes neiges  Fortes précipitations  Vent > 20 kt
SIGMETs :   Divers  Orages  Givrage  Turbulence  Onde Orograph.  Cendres Volcan.






- Altitude de l'aérodrome : 70 ft
- Code IATA : WBG


ETNS - Schleswig

DERNIER METAR :
  • 162220Z AUTO 28001KT 0700 // ////// 18/17 Q1011 ///

METARs EXPIRÉS :
  • 162120Z AUTO 26005KT 0050 // ////// 18/17 Q1010 ///
  • 162020Z AUTO 25004KT 5000 // ////// 19/17 Q1010 ///

TAF TAF ETNS
Valide du 16 à 14h jusqu'au 16 à 23h UTC


161313Z 1614/1623 24015KT 9999 NSW FEW040
PROB30 1614/1619 VRB15G30KT 3000 TSRA BKN030CB
BECMG 1621/1623 23003KT 2000 MIFG BKN003 BY ETGL



MET'MAP, la Météo Aéronautique d'un coup d'oeil ! - Copyright ORBIFLY Décembre 2007 - Disclaimer

ORBIFLY MET'MAP TEAM :

Programmation & Développement : Alexandra Zaïnal
Sur une idée originale de : Baudouin d'Aumeries
Soutien technique & logistique : Manuel Goepfert
Assistance : Marc-Olivier Méhu




SOURCES & CREDITS :

   NOAA